Rechercher aéroport 
image banner adimage banner adimage banner ad
image banner ad

CN48 - St Joseph's Medical Center

Situé à Stockton, United States

ICAO - CN48, IATA -

Données fournies par Airmate  

Information générale

Coordonnées: N37°58'13" W121°17'16"
Élévation : 47 feet MSL.
Variation magnétique : 13° East
Voir autres Aéroports à California

Données opérationnelles

Special qualification required
Heure actuelle UTC:
Heure actuelle locale:
Météo à : KSCK - Stockton Metropolitan ( 9 km )
METAR: KSCK 300055Z 31009KT 10SM CLR 37/13 A2980 RMK AO2 SLP091 T03720133
TAF: KSCK 292350Z 3000/3024 30011KT P6SM FEW200 FM300200 27012G20KT P6SM SCT150 FM300500 30010KT P6SM SKC FM300900 VRB04KT P6SM FEW150 FM302100 29009KT P6SM SKC
Voir NOTAMs / SUP AIP / TFR affectant cet aéroport [VIEW]
Fréquences de communication: [VIEW]

Pistes:

Coordonnées de l'aéroport

Adresse: Stockton United States

Vue satellite de CN48